Saturday, February 24, 2018, 3:15 AM EST
Back to Local

KDOV, Dover Air Force Base

Location: Dover, DE, United States Lat: 39.133
Local Time: 3:15 AM EST ( 8:15 GMT) Lon: -75.467
Time Zone: US/Eastern Elev: 29 ft

Show me the last for .
Show Coded

Time T Td Feel RH Dir Speed Gust Alt SLP Vis Weather Sky Remarks
2018-02-24 02:50 46 46 45 100 240° 3 - 30.20 30.21 0 BR VV002 None
2018-02-24 02:45 46 46 44 100 220° 5 - 30.20 30.21 1 BR VV002 None
2018-02-24 02:40 46 46 44 100 230° 5 - 30.21 30.22 1 BR OVC002 None
2018-02-24 02:35 46 46 44 100 230° 6 - 30.21 30.22 1 BR OVC003 Variable visibility
2018-02-24 02:25 46 46 44 100 230° 6 - 30.22 30.23 1 BR OVC003 Variable visibility
2018-02-24 02:15 46 46 44 100 230° 6 - 30.22 30.23 2 BR OVC004 None
2018-02-24 02:10 46 46 43 100 240° 7 - 30.22 30.23 3 BR OVC004 None
2018-02-24 01:56 47 47 43 99 200° 8 - 30.21 30.22 2 BR OVC004 Pressure falling rapidly
2018-02-24 01:42 46 46 43 100 230° 7 - 30.23 30.24 2 BR OVC004 Variable visibility
2018-02-24 01:37 46 46 43 100 220° 7 - 30.23 30.24 3 BR OVC004 None
2018-02-24 01:27 46 46 43 100 220° 7 - 30.23 30.24 2 BR OVC004 None
2018-02-24 01:12 46 46 42 100 220° 8 - 30.23 30.24 3 BR OVC004 None
2018-02-24 00:56 46 46 42 97 240° 8 - 30.23 30.24 4 BR OVC005 6-hr Min Temp (1am): 44.4°F
6-hr Max Temp (1am): 46.4°F
2018-02-23 23:56 46 46 44 97 240° 6 - 30.24 30.25 10 OVC005 24-hr Min Temp (12am): 39.4°F
24-hr Max Temp (12am): 46.4°F
2018-02-23 23:26 46 46 42 100 230° 9 - 30.25 30.26 10 OVC005 None
2018-02-23 23:01 46 46 42 100 230° 8 - 30.26 30.27 4 BR OVC004 None
2018-02-23 22:56 46 46 41 99 220° 8 - 30.26 30.27 2 BR OVC003 Variable visibility
2018-02-23 22:46 46 46 44 100 220° 6 - 30.27 30.28 2 BR OVC003 None
2018-02-23 22:26 46 45 43 93 220° 7 - 30.27 30.28 1 BR OVC003 None
2018-02-23 22:16 46 45 43 93 220° 7 - 30.27 30.28 2 BR OVC003 Variable visibility
2018-02-23 22:06 45 45 41 100 200° 6 - 30.27 30.28 2 BR OVC004 None
2018-02-23 21:56 45 45 43 99 200° 5 - 30.27 30.28 2 BR OVC003 None
2018-02-23 21:31 45 45 42 100 200° 5 - 30.29 30.30 2 BR OVC003 None
2018-02-23 21:06 45 45 42 100 200° 5 - 30.29 30.30 1 BR OVC003 None
2018-02-23 21:01 45 45 42 100 190° 5 - 30.30 30.31 2 BR OVC003 Variable visibility
2018-02-23 20:56 45 45 43 99 190° 5 - 30.30 30.31 2 BR OVC004 None
2018-02-23 20:43 45 45 43 100 220° 3 - 30.31 30.32 2 BR OVC004 Variable visibility
2018-02-23 19:56 45 44 - 99 - Calm - 30.31 30.32 5 BR OVC004 None
2018-02-23 18:56 44 44 43 99 140° 3 - 30.32 30.33 6 BR OVC005 None
2018-02-23 18:16 45 45 - 100 - Calm - 30.34 30.35 4 BR OVC005 None
2018-02-23 17:56 44 44 - 99 - Calm - 30.34 30.35 6 BR OVC005 None
2018-02-23 17:26 45 45 41 100 120° 6 - 30.34 30.35 6 BR OVC005 None
2018-02-23 16:56 44 44 - 97 - Calm - 30.36 30.37 6 BR OVC004 None
2018-02-23 16:51 45 45 - 100 - Calm - 30.37 30.38 6 BR OVC004 None
2018-02-23 16:06 45 43 41 93 120° 6 - 30.37 30.38 8 OVC005 None
2018-02-23 15:56 44 44 40 97 120° 7 - 30.37 30.38 7 OVC006 6-hr Precip Total (4pm): 0.00"
2018-02-23 15:41 45 45 40 100 100° 8 - 30.37 30.38 5 BR OVC006 None
2018-02-23 14:56 44 44 41 97 100° 7 - 30.40 30.41 3 BR OVC007 None
2018-02-23 14:33 45 43 42 93 90° 5 - 30.42 30.43 2 BR OVC006 None
2018-02-23 14:23 45 43 41 93 80° 6 - 30.42 30.43 2 BR OVC005 None
2018-02-23 13:56 44 44 41 97 70° 6 - 30.44 30.45 2 BR OVC004 1-hr Precip Total: Trace
2018-02-23 13:41 45 43 42 93 60° 5 - 30.45 30.46 2 BR OVC004 None
2018-02-23 13:37 45 43 41 93 80° 6 - 30.45 30.46 1 BR OVC004 None
2018-02-23 13:21 45 43 40 93 50° 8 - 30.46 30.47 1 BR OVC006 None
2018-02-23 13:17 43 43 39 100 60° 6 - 30.46 30.47 1 -RA BR OVC006 None
2018-02-23 13:12 43 43 39 100 60° 7 - 30.46 30.47 1 -RA BR OVC006 None
2018-02-23 13:07 43 43 39 100 50° 6 - 30.47 30.48 1 -RA BR OVC006 None
2018-02-23 13:06 43 43 39 100 50° 7 - 30.47 30.48 1 BR OVC006 None
2018-02-23 13:01 43 43 39 100 70° 6 - 30.47 30.48 1 BR OVC007 None
2018-02-23 12:56 43 43 39 97 60° 8 - 30.47 30.48 1 BR OVC007 6-hr Precip Total (1pm): 0.10"
6-hr Min Temp (1pm): 40.3°F
6-hr Max Temp (1pm): 43.3°F
2018-02-23 12:31 43 43 37 100 70° 9 - 30.49 30.50 1 BR OVC007 None
2018-02-23 11:56 43 42 38 97 60° 8 - 30.51 30.52 1 BR OVC006 None
2018-02-23 11:36 43 43 37 100 70° 9 - 30.52 30.53 1 BR OVC006 None
2018-02-23 11:21 43 41 37 93 60° 9 - 30.53 30.54 2 BR OVC006 None
2018-02-23 10:56 42 42 37 97 50° 8 - 30.54 30.55 2 BR OVC007 1-hr Precip Total: 0.01"
2018-02-23 10:55 43 41 38 93 50° 8 - 30.54 30.55 2 BR OVC007 None
2018-02-23 10:35 43 41 38 93 50° 8 - 30.55 30.56 3 BR OVC007 None
2018-02-23 10:25 43 41 37 93 60° 10 - 30.55 30.56 2 BR OVC006 None
2018-02-23 10:11 41 41 35 100 60° 10 - 30.56 30.57 2 -RA BR OVC006 Variable visibility
2018-02-23 09:56 42 40 35 95 50° 10 - 30.56 30.57 3 BR BKN006 OVC011 1-hr Precip Total: 0.09"
6-hr Precip Total (10am): 0.09"
2018-02-23 09:48 41 41 36 100 50° 8 - 30.57 30.58 10 BKN006 OVC011 None
2018-02-23 09:41 41 41 36 100 50° 8 - 30.57 30.58 6 -RA BR BKN006 OVC011 None
2018-02-23 09:31 41 41 36 100 40° 8 - 30.58 30.59 3 -RA BR SCT006 OVC010 None
2018-02-23 09:26 41 41 36 100 50° 7 - 30.58 30.59 1 -RA BR SCT006 OVC010 Variable visibility
2018-02-23 09:21 41 41 36 100 40° 8 - 30.58 30.59 1 +RA BR OVC008 Variable visibility
2018-02-23 08:56 41 40 36 97 60° 7 - 30.58 30.59 2 -RA BR OVC008 Variable visibility
1-hr Precip Total: Trace
2018-02-23 08:54 41 41 36 100 50° 7 - 30.58 30.59 2 -RA BR OVC008 Variable visibility
2018-02-23 08:51 41 41 36 100 60° 8 - 30.58 30.59 2 BR BKN006 OVC010 Variable visibility
2018-02-23 08:41 41 41 35 100 60° 9 - 30.58 30.59 4 BR OVC008 None
2018-02-23 08:28 41 41 35 100 70° 10 - 30.58 30.59 3 -RA BR OVC007 None
2018-02-23 08:21 41 41 35 100 50° 9 - 30.58 30.59 2 -RA BR OVC007 Variable visibility
2018-02-23 08:14 41 41 34 100 60° 12 - 30.58 30.59 2 BR OVC007 None
2018-02-23 07:56 41 40 35 97 60° 9 - 30.58 30.59 2 -DZ BR OVC008 1-hr Precip Total: 0.01"
2018-02-23 07:51 41 39 36 93 60° 8 - 30.58 30.59 2 BR BKN006 OVC010 Variable visibility
2018-02-23 07:41 41 39 34 93 60° 12 - 30.57 30.58 2 BR OVC008 None
2018-02-23 07:36 41 39 34 93 60° 12 - 30.58 30.59 2 -RA BR OVC008 None
2018-02-23 07:21 41 39 36 93 50° 8 - 30.59 30.60 2 -RA BR OVC007 None
2018-02-23 07:16 41 39 35 93 50° 10 - 30.59 30.60 3 -RA BR OVC007 None
2018-02-23 07:12 41 39 36 93 40° 8 - 30.59 30.60 3 -RA BR OVC008 None
2018-02-23 07:11 41 39 36 93 40° 7 - 30.59 30.60 3 -RA BR OVC008 None
2018-02-23 06:56 40 39 34 93 50° 9 - 30.58 30.59 7 OVC008 1-hr Precip Total: Trace
6-hr Precip Total (7am): 0.07"
24-hr Precip Total (7am): 0.11"
6-hr Min Temp (7am): 39.4°F
6-hr Max Temp (7am): 40.3°F
2018-02-23 06:47 41 39 35 93 40° 9 - 30.58 30.59 9 OVC008 None
2018-02-23 06:37 41 39 35 93 50° 9 - 30.57 30.58 10 -DZ OVC008 None
2018-02-23 05:56 40 38 33 93 60° 10 - 30.57 30.58 10 OVC008 1-hr Precip Total: Trace
2018-02-23 05:47 39 39 33 100 50° 9 - 30.58 30.59 10 OVC008 None
2018-02-23 05:34 39 39 34 100 60° 8 - 30.58 30.59 10 -RA OVC009 None
2018-02-23 05:06 39 37 35 93 50° 6 - 30.59 30.60 8 OVC009 None
2018-02-23 04:56 39 38 34 93 50° 8 - 30.59 30.60 10 OVC010 1-hr Precip Total: 0.05"
2018-02-23 04:46 39 37 34 93 50° 8 - 30.59 30.60 10 OVC010 None
2018-02-23 04:42 39 37 34 93 50° 8 - 30.59 30.60 9 -DZ OVC010 None
2018-02-23 04:27 39 37 34 93 40° 8 - 30.60 30.61 6 -RA BR OVC011 None
2018-02-23 04:22 39 37 35 93 50° 6 - 30.60 30.61 5 -RA BR BKN010 OVC014 None
2018-02-23 03:56 39 38 34 93 30° 7 - 30.59 30.60 7 -RA OVC011 1-hr Precip Total: 0.02"
6-hr Precip Total (4am): 0.02"
2018-02-23 03:46 39 37 34 93 30° 7 - 30.59 30.60 7 -RA OVC011 None

Support USWX by starting your Amazon purchase here.